Historyczne dane pomiarowe

Dodano dane terminowe – wersja testowa.

Dane z okresu 1951-2019

Wersja bazy: 1.34 [2019-03-16, lista zmian], aktualizacja planowana na 2019-04-15

Dane meteo z obszaru Polski uzyskane na podstawie danych udostępnionych przez Instytut Meteorologii i Gospodarki Wodnej – Państwowy Instytut Badawczy.

 

Wybierz Datę:    

       

TemperaturaWilgotnośćWiatrCiśnienieOpadyŚniegCzas trwania zjawisk
 Stacja t tx tn tng RH VA  wxwx mslp ppp RRR   cm mm wxwxwxwxwxwxwx
1999-08-14 16.2 21.6 9.7 6.3 55.0- 2.7 2.0---- 0.5------------
1999-08-13 16.3 21.1 11.4 9.2 71.0- 3.7 1.3---- 0.0------------
1999-08-12 17.3 21.3 11.7 12.7 63.3- 5.0 0.3---- 0.0------------
1999-08-11 17.1 23.8 13.5 13.0 82.3- 4.7 0.0---- 4.0------------
1999-08-10 19.2 23.0 15.3 15.6 93.3- 6.7 0.0---- 2.5------------
1999-08-09 21.9 29.1 18.7 14.8 83.3- 5.0 0.0---- 2.7------------
1999-08-08 21.5 28.3 15.9 15.2 77.5- 2.0 1.3---- 0.0------------
1999-08-07 21.3 30.8 16.4 14.6 69.8- 4.0 1.0---- 18.3------------
1999-08-06 22.4 29.2 14.3 14.2 75.0- 2.7 1.3---- 0.0------------
1999-08-05 20.4 29.9 9.7 8.8 59.8- 2.3 0.0---- 0.0------------
1999-08-04 19.7 27.4 9.6 9.0 48.0- 1.3 1.0---- 0.0------------
1999-08-03 18.1 26.3 10.1 6.3 65.3- 2.3 0.0---- 0.0------------
1999-08-02 18.0 25.3 10.5 6.6 67.8- 5.0 1.3---- 0.0------------
1999-08-01 19.5 27.7 10.9 6.9 58.8- 2.3 0.7---- 0.0------------
1999-07-31 18.3 25.5 9.7 9.7 63.5- 3.0 0.7---- 0.0------------
1999-07-30 18.1 24.8 9.4 6.5 65.0- 3.0 0.7---- 0.0------------
1999-07-29 18.8 24.4 13.7 12.2 72.8- 2.7 0.3---- 0.0------------
1999-07-28 18.4 23.8 11.7 10.8 64.8- 2.7 1.0---- 0.0------------
1999-07-27 18.0 23.8 13.7 13.7 72.5- 5.3 1.0---- 0.0------------
1999-07-26 20.3 27.2 11.5 8.7 66.0- 2.7 0.7---- 0.0------------
1999-07-25 17.7 23.8 9.7 9.2 66.3- 1.3 0.3---- 0.0------------
1999-07-24 16.4 20.7 12.5 12.4 79.5- 6.0 0.0---- 0.0------------
1999-07-23 16.5 20.1 13.4 13.4 76.8- 6.3 0.0---- 0.8------------
1999-07-22 19.8 24.2 16.4 15.2 62.5- 5.0 2.0---- 0.0------------
1999-07-21 22.3 27.7 16.4 14.6 69.3- 2.0 0.0---- 0.0------------
1999-07-20 22.4 30.1 13.5 9.9 70.0- 2.0 0.3---- 0.8------------
1999-07-19 20.2 28.2 14.4 8.7 72.0- 1.3 0.3---- 0.0------------
1999-07-18 19.7 26.2 10.3 10.2 56.3- 2.0 0.7---- 0.0------------
1999-07-17 17.2 23.5 9.7 9.2 75.0- 3.0 0.3---- 0.0------------
1999-07-16 16.4 21.7 9.4 8.7 74.5- 4.3 0.3---- 0.0------------
1999-07-15 16.9 20.9 13.2 9.7 80.8- 4.0 1.0---- 2.0------------
1999-07-14 20.0 25.4 15.4 15.4 83.8- 5.3 0.0---- 2.6------------
1999-07-13 20.2 26.1 15.2 15.2 81.3- 5.7 0.3---- 1.8------------
1999-07-12 18.9 22.8 15.4 14.2 82.5- 6.3 1.0---- 0.5------------
1999-07-11 19.1 22.3 16.4 15.7 88.3- 7.7 0.0---- 3.5------------
1999-07-10 19.1 22.8 13.9 14.2 85.8- 6.7 0.0---- 0.0------------
1999-07-09 17.2 22.3 13.7 13.2 95.0- 8.0 1.3---- 1.2------------
1999-07-08 15.4 17.9 13.9 13.2 95.0- 8.0 0.7---- 9.0------------
1999-07-07 19.3 23.4 16.4 17.0 92.5- 6.0 1.0---- 31.6------------
1999-07-06 24.4 31.1 20.8 18.1 72.5- 4.3 0.7---- 23.5------------
1999-07-05 25.2 30.1 18.5 15.7 58.8- 1.3 2.3---- 0.0------------
1999-07-04 23.0 29.3 13.1 12.7 53.8- 1.0 1.3---- 0.0------------
1999-07-03 18.6 23.8 12.5 11.7 80.0- 1.3 0.0---- 0.0------------
1999-07-02 18.4 23.8 12.7 13.2 88.0- 3.7 0.0---- 2.2------------
1999-07-01 18.0 23.8 12.4 12.2 86.3- 5.0 1.0---- 6.5------------
1999-06-30 19.2 24.8 12.1 11.2 74.5- 2.3 0.0---- 0.0------------
1999-06-29 18.0 22.8 12.3 11.0 78.3- 2.7 1.0---- 0.0------------
1999-06-28 20.3 27.3 15.4 10.7 80.8- 4.3 1.3---- 6.5------------
1999-06-27 19.8 25.8 14.3 12.7 58.0- 4.3 2.0---- 6.0------------
1999-06-26 17.1 23.8 9.7 7.4 77.8- 3.3 0.7---- 0.0------------
1999-06-25 13.1 17.9 5.4 2.0 71.3- 4.0 0.7---- 7.5------------
1999-06-24 12.8 16.9 5.3 2.6 74.0- 3.7 1.3---- 0.0------------
1999-06-23 11.1 15.4 8.4 8.2 80.3- 4.3 1.7---- 0.0------------
1999-06-22 8.8 12.2 6.9 7.1 94.5- 8.0 3.0---- 28.0------------
1999-06-21 15.7 21.2 11.9 11.4 86.3- 7.0 1.0---- 24.5------------
1999-06-20 16.9 21.4 10.4 10.2 86.8- 4.7 0.0---- 1.4------------
1999-06-19 14.4 17.7 12.4 12.2 95.5- 6.7 2.0---- 0.4------------
1999-06-18 15.9 19.9 13.3 13.2 95.0- 7.3 1.7---- 19.6------------
1999-06-17 16.6 21.4 12.9 11.2 86.3- 5.7 0.0---- 0.0------------
1999-06-16 15.7 17.7 14.1 14.2 93.8- 8.0 0.0---- 2.2------------
388.6 ms

 

Źródłem pochodzenia danych jest Instytut Meteorologii i Gospodarki Wodnej – Państwowy Instytut Badawczy. Dane Instytutu Meteorologii i Gospodarki Wodnej – Państwowego Instytutu Badawczego zostały przetworzone.

Dane źródłowe można odnaleźć na stronie https://dane.imgw.pl